Time;durP1;ratioP1;P1;durP2;ratioP2;P2;SDS_P1;SDS_P2;PMS_P1;PMS_P2;Temp;Humidity;BMP_temperature;BMP_pressure;BME280_temperature;BME280_humidity;BME280_pressure;Samples;Min_cycle;Max_cycle;Signal;HPM_P1;HPM_P2
2024/01/22 00:00:09;;;;;;;6.80;2.95;;;;;;;14.33;48.62;100713.78;5006482;28;20401;-40
2024/01/22 00:02:36;;;;;;;6.78;2.92;;;;;;;14.33;48.42;100688.97;5006430;28;20096;-41
2024/01/22 00:05:03;;;;;;;6.03;2.70;;;;;;;14.35;48.02;100699.47;5004627;28;20043;-41
2024/01/22 00:07:30;;;;;;;6.13;2.42;;;;;;;14.35;48.06;100678.16;5006822;28;20050;-41
2024/01/22 00:09:57;;;;;;;4.25;2.35;;;;;;;14.35;48.24;100678.16;5005737;28;20132;-42
2024/01/22 00:12:23;;;;;;;4.15;2.35;;;;;;;14.36;48.21;100682.53;5002388;28;20143;-39
2024/01/22 00:14:50;;;;;;;4.00;2.55;;;;;;;14.36;48.08;100702.03;5007711;28;20490;-40
2024/01/22 00:17:17;;;;;;;4.30;2.58;;;;;;;14.38;48.36;100677.88;5006329;28;20042;-42
2024/01/22 00:19:43;;;;;;;4.15;2.13;;;;;;;14.40;48.45;100675.94;5005283;28;20054;-41
2024/01/22 00:22:10;;;;;;;4.00;2.40;;;;;;;14.48;48.88;100678.78;5006386;28;20068;-41
2024/01/22 00:24:37;;;;;;;6.15;2.90;;;;;;;14.60;48.76;100669.72;5001125;28;20825;-41
2024/01/22 00:27:04;;;;;;;5.78;2.65;;;;;;;14.73;47.82;100657.00;5007760;28;20355;-43
2024/01/22 00:29:30;;;;;;;3.78;2.38;;;;;;;14.87;48.27;100633.56;5006391;28;20060;-42
2024/01/22 00:31:57;;;;;;;5.53;2.78;;;;;;;15.00;48.31;100647.50;5009000;28;20456;-41
2024/01/22 00:34:24;;;;;;;3.65;2.28;;;;;;;15.12;47.14;100635.72;5007910;28;20053;-41
2024/01/22 00:36:50;;;;;;;4.32;2.38;;;;;;;15.24;46.80;100673.81;5008579;28;20104;-42
2024/01/22 00:39:17;;;;;;;3.05;1.90;;;;;;;15.35;47.34;100654.94;5007482;28;20049;-42
2024/01/22 00:41:43;;;;;;;5.43;2.35;;;;;;;15.44;47.24;100640.78;5009252;28;20046;-42
2024/01/22 00:44:10;;;;;;;2.83;1.85;;;;;;;15.53;46.93;100658.59;5007131;28;20125;-42
2024/01/22 00:46:37;;;;;;;6.15;2.22;;;;;;;15.61;46.35;100630.34;5005405;28;20684;-42
2024/01/22 00:49:03;;;;;;;5.53;2.40;;;;;;;15.67;46.01;100611.91;5006630;28;20045;-42
2024/01/22 00:51:30;;;;;;;6.97;2.83;;;;;;;15.71;46.98;100621.34;5007608;28;20056;-42
2024/01/22 00:53:57;;;;;;;3.05;1.95;;;;;;;15.74;46.63;100623.72;5006851;28;20054;-42
2024/01/22 00:56:24;;;;;;;4.38;2.60;;;;;;;15.75;46.55;100628.06;5008627;28;20045;-43
2024/01/22 00:58:50;;;;;;;5.22;2.40;;;;;;;15.75;46.63;100620.06;5006258;28;20054;-42
2024/01/22 01:01:17;;;;;;;3.85;1.88;;;;;;;15.75;46.73;100619.22;5005453;28;20053;-42
2024/01/22 01:03:43;;;;;;;5.05;2.65;;;;;;;15.73;46.41;100619.38;4999885;28;20045;-42
2024/01/22 01:06:10;;;;;;;4.45;2.70;;;;;;;15.71;46.08;100616.00;5003530;28;20665;-42
2024/01/22 01:08:37;;;;;;;6.80;2.50;;;;;;;15.69;46.40;100604.63;5000530;28;20050;-42
2024/01/22 01:11:03;;;;;;;3.88;2.40;;;;;;;15.66;47.15;100625.44;5005508;28;20103;-42
2024/01/22 01:13:30;;;;;;;4.75;2.42;;;;;;;15.63;47.36;100623.84;5004558;28;20543;-43
2024/01/22 01:15:57;;;;;;;4.97;2.50;;;;;;;15.61;46.20;100622.34;5003748;28;20056;-43
2024/01/22 01:18:23;;;;;;;6.78;2.72;;;;;;;15.59;46.79;100609.09;5001278;28;20050;-42
2024/01/22 01:20:50;;;;;;;4.28;2.40;;;;;;;15.57;47.49;100597.72;5005832;28;20046;-42
2024/01/22 01:23:17;;;;;;;3.88;2.28;;;;;;;15.55;46.91;100591.66;5001341;28;20054;-43
2024/01/22 01:25:44;;;;;;;5.50;1.95;;;;;;;15.53;46.75;100577.63;5006007;28;20120;-41
2024/01/22 01:28:10;;;;;;;4.03;2.17;;;;;;;15.51;46.97;100568.91;5003378;28;20137;-42
2024/01/22 01:30:37;;;;;;;4.05;2.10;;;;;;;15.49;47.03;100561.06;5002420;28;20708;-42
2024/01/22 01:33:04;;;;;;;3.70;1.90;;;;;;;15.49;47.04;100562.88;5006367;28;20057;-42
2024/01/22 01:35:31;;;;;;;5.70;2.35;;;;;;;15.46;47.34;100545.31;5006529;28;20037;-42
2024/01/22 01:37:58;;;;;;;4.85;1.60;;;;;;;15.46;46.86;100544.47;5001798;28;20493;-42
2024/01/22 01:40:24;;;;;;;5.13;1.95;;;;;;;15.45;48.02;100519.59;5005365;28;20116;-42
2024/01/22 01:42:51;;;;;;;3.30;1.85;;;;;;;15.45;46.92;100529.44;5003462;28;20139;-42
2024/01/22 01:45:18;;;;;;;2.20;1.77;;;;;;;15.48;47.63;100511.28;5001944;28;20046;-42
2024/01/22 01:47:47;;;;;;;3.15;2.08;;;;;;;15.53;47.44;100524.22;5002891;28;20119;-42
2024/01/22 01:50:16;;;;;;;3.85;1.73;;;;;;;15.60;47.61;100519.97;5003825;28;20517;-42
2024/01/22 01:52:43;;;;;;;4.07;1.90;;;;;;;15.66;47.30;100499.88;5002357;28;20456;-42
2024/01/22 01:55:12;;;;;;;2.70;2.00;;;;;;;15.74;46.88;100514.19;5002432;28;20141;-41
2024/01/22 01:57:39;;;;;;;3.60;1.80;;;;;;;15.81;47.01;100500.25;5001794;28;20054;-43
2024/01/22 02:00:11;;;;;;;4.90;1.85;;;;;;;15.89;47.55;100486.97;5001635;28;20541;-43
2024/01/22 02:02:39;;;;;;;4.13;1.88;;;;;;;15.94;46.65;100457.97;5002219;28;20049;-42
2024/01/22 02:05:07;;;;;;;3.97;1.80;;;;;;;16.00;46.77;100468.03;5003632;28;20086;-42
2024/01/22 02:07:34;;;;;;;4.47;2.17;;;;;;;16.04;47.56;100445.41;5003663;28;20050;-43
2024/01/22 02:10:00;;;;;;;5.00;1.95;;;;;;;16.06;47.38;100440.72;5005299;28;20061;-42
2024/01/22 02:12:27;;;;;;;3.53;1.73;;;;;;;16.09;46.65;100427.06;5004599;28;20104;-42
2024/01/22 02:14:54;;;;;;;4.32;1.60;;;;;;;16.11;47.17;100437.59;5006651;28;20046;-42
2024/01/22 02:17:20;;;;;;;4.05;1.70;;;;;;;16.12;47.69;100423.22;5004986;28;20069;-42
2024/01/22 02:19:49;;;;;;;3.22;1.50;;;;;;;16.13;46.86;100422.25;5006770;28;20041;-42
2024/01/22 02:22:16;;;;;;;5.30;2.00;;;;;;;16.13;46.87;100438.31;5006989;28;20049;-42
2024/01/22 02:24:42;;;;;;;3.60;1.63;;;;;;;16.13;46.61;100409.72;5005978;28;20421;-42
2024/01/22 02:27:10;;;;;;;3.50;1.48;;;;;;;16.13;47.82;100401.72;5007894;28;20129;-42
2024/01/22 02:29:36;;;;;;;3.55;2.03;;;;;;;16.13;47.05;100401.72;5004954;28;20453;-42
2024/01/22 02:32:03;;;;;;;2.72;1.42;;;;;;;16.12;47.31;100392.03;5005983;28;20049;-42
2024/01/22 02:34:30;;;;;;;3.25;1.40;;;;;;;16.11;47.11;100374.28;5006048;28;20086;-42
2024/01/22 02:36:56;;;;;;;2.17;1.70;;;;;;;16.12;47.33;100384.00;5005018;28;20041;-41
2024/01/22 02:39:23;;;;;;;4.10;1.75;;;;;;;16.11;48.02;100371.59;5008123;28;20081;-42
2024/01/22 02:41:50;;;;;;;2.47;1.38;;;;;;;16.10;47.82;100369.94;5010368;28;20053;-43
2024/01/22 02:44:16;;;;;;;2.35;1.10;;;;;;;16.09;47.29;100357.56;5007931;28;20056;-42
2024/01/22 02:46:43;;;;;;;3.42;1.63;;;;;;;16.07;47.32;100351.50;5008538;28;20050;-43
2024/01/22 02:49:10;;;;;;;3.40;1.35;;;;;;;16.06;47.75;100363.22;5009539;28;20244;-41
2024/01/22 02:51:37;;;;;;;2.75;1.30;;;;;;;16.04;48.62;100347.34;5006695;28;20154;-42
2024/01/22 02:54:04;;;;;;;2.30;1.10;;;;;;;16.03;47.70;100352.81;5007262;28;20104;-43
2024/01/22 02:56:31;;;;;;;1.83;1.20;;;;;;;16.04;48.68;100338.47;5009001;28;20069;-42
2024/01/22 02:58:58;;;;;;;3.50;1.05;;;;;;;16.03;48.45;100334.09;5004224;28;20077;-43
2024/01/22 03:01:25;;;;;;;2.83;1.05;;;;;;;16.02;48.85;100351.97;5005981;28;20050;-43
2024/01/22 03:03:52;;;;;;;3.08;1.25;;;;;;;16.02;48.28;100329.75;5005521;28;20116;-43
2024/01/22 03:06:19;;;;;;;1.42;1.00;;;;;;;16.01;47.90;100301.34;5000965;28;20092;-43
2024/01/22 03:08:45;;;;;;;1.83;1.30;;;;;;;15.98;48.58;100323.88;5002638;28;20583;-43
2024/01/22 03:11:12;;;;;;;1.92;1.20;;;;;;;15.96;48.78;100335.69;5001835;28;20050;-42
2024/01/22 03:13:39;;;;;;;1.80;1.10;;;;;;;16.01;48.88;100304.84;5001957;28;20077;-43
2024/01/22 03:16:05;;;;;;;2.00;1.17;;;;;;;16.06;47.84;100309.75;5003876;28;20469;-43
2024/01/22 03:18:32;;;;;;;2.95;1.00;;;;;;;16.10;48.70;100311.13;5000621;28;20767;-43
2024/01/22 03:21:03;;;;;;;2.67;1.13;;;;;;;16.17;47.71;100311.34;5000629;28;20104;-43
2024/01/22 03:23:30;;;;;;;1.15;0.95;;;;;;;16.22;47.83;100323.25;5005832;28;20054;-43
2024/01/22 03:25:57;;;;;;;1.60;1.00;;;;;;;16.26;47.83;100311.25;5001894;28;20046;-43
2024/01/22 03:28:24;;;;;;;1.33;0.90;;;;;;;16.31;47.37;100308.09;5005776;28;20064;-43
2024/01/22 03:30:50;;;;;;;1.67;1.00;;;;;;;16.34;47.89;100301.63;4999564;28;20050;-43
2024/01/22 03:33:17;;;;;;;1.55;0.77;;;;;;;16.36;47.60;100292.44;5003945;28;20104;-43
2024/01/22 03:35:45;;;;;;;1.80;1.00;;;;;;;16.37;48.19;100312.84;5001265;28;20068;-43
2024/01/22 03:38:13;;;;;;;2.42;0.98;;;;;;;16.36;47.93;100296.94;5002713;28;20500;-43
2024/01/22 03:40:39;;;;;;;1.05;0.70;;;;;;;16.35;48.07;100309.47;5006717;28;20046;-42
2024/01/22 03:43:06;;;;;;;1.02;0.90;;;;;;;16.34;48.09;100277.53;5002033;28;20057;-42
2024/01/22 03:45:33;;;;;;;1.00;0.90;;;;;;;16.32;48.27;100295.56;5000543;28;20050;-42
2024/01/22 03:47:59;;;;;;;2.65;1.00;;;;;;;16.29;48.76;100297.56;5002318;28;20497;-42
2024/01/22 03:50:26;;;;;;;2.10;0.88;;;;;;;16.28;49.16;100271.84;5001865;28;20150;-42
2024/01/22 03:52:53;;;;;;;1.00;0.70;;;;;;;16.25;48.91;100265.97;5005123;28;20370;-42
2024/01/22 03:55:20;;;;;;;4.60;1.02;;;;;;;16.24;49.48;100283.84;5004281;28;20104;-43
2024/01/22 03:57:46;;;;;;;1.88;0.68;;;;;;;16.20;49.34;100274.44;5005293;28;20567;-43
2024/01/22 04:00:13;;;;;;;1.08;0.80;;;;;;;16.19;49.41;100267.41;5002422;28;20057;-42
2024/01/22 04:02:40;;;;;;;1.83;1.00;;;;;;;16.17;49.56;100266.72;5002089;28;20046;-42
2024/01/22 04:05:07;;;;;;;0.95;0.90;;;;;;;16.16;48.83;100261.53;5004861;28;20136;-43
2024/01/22 04:07:34;;;;;;;2.85;0.77;;;;;;;16.14;49.48;100293.78;4998549;28;20046;-43
2024/01/22 04:10:01;;;;;;;1.42;0.70;;;;;;;16.13;48.78;100289.44;5004990;28;20120;-43
2024/01/22 04:12:28;;;;;;;2.75;0.85;;;;;;;16.12;48.97;100281.53;5007701;28;20054;-44
2024/01/22 04:14:54;;;;;;;0.95;0.80;;;;;;;16.11;49.85;100306.59;5003211;28;20054;-43
2024/01/22 04:17:21;;;;;;;2.05;0.90;;;;;;;16.09;49.64;100293.41;5013809;28;20761;-44
2024/01/22 04:19:48;;;;;;;1.98;1.00;;;;;;;16.09;49.16;100287.22;5002999;28;20093;-43
2024/01/22 04:22:14;;;;;;;1.95;0.90;;;;;;;16.08;49.48;100281.03;5005111;28;20104;-43
2024/01/22 04:24:41;;;;;;;1.95;0.65;;;;;;;16.07;49.04;100257.13;4998379;28;20321;-43
2024/01/22 04:27:08;;;;;;;1.50;0.80;;;;;;;16.06;49.70;100266.97;5005885;28;20141;-43
2024/01/22 04:29:35;;;;;;;2.47;0.70;;;;;;;16.04;49.93;100274.31;5002871;28;20058;-43
2024/01/22 04:32:02;;;;;;;1.30;0.63;;;;;;;16.03;49.25;100297.50;5006016;28;20049;-43
2024/01/22 04:34:29;;;;;;;1.27;0.90;;;;;;;16.03;49.01;100265.44;5013464;28;20352;-43
2024/01/22 04:36:56;;;;;;;0.95;0.60;;;;;;;16.03;49.21;100288.66;5002907;28;20053;-43
2024/01/22 04:39:24;;;;;;;2.05;0.70;;;;;;;16.02;49.26;100278.97;5003206;28;20056;-44
2024/01/22 04:41:52;;;;;;;1.67;0.80;;;;;;;16.02;49.98;100284.31;5005368;28;20065;-43
2024/01/22 04:44:19;;;;;;;0.80;0.50;;;;;;;15.99;49.89;100266.75;5001165;28;20054;-43
2024/01/22 04:46:46;;;;;;;1.00;0.60;;;;;;;16.00;49.23;100299.66;5000997;28;20054;-42
2024/01/22 04:49:13;;;;;;;2.63;0.90;;;;;;;15.97;49.89;100298.16;5001017;28;20112;-43
2024/01/22 04:51:43;;;;;;;1.48;0.60;;;;;;;15.92;49.90;100272.84;5002196;28;20124;-43
2024/01/22 04:54:12;;;;;;;1.08;0.50;;;;;;;15.92;49.93;100273.72;5003403;28;20076;-44
2024/01/22 04:56:41;;;;;;;1.23;0.70;;;;;;;15.99;50.84;100284.63;4999293;28;20053;-43
2024/01/22 04:59:08;;;;;;;2.08;0.75;;;;;;;16.06;50.03;100266.13;5004410;28;20405;-43
2024/01/22 05:01:35;;;;;;;1.55;0.52;;;;;;;16.12;49.48;100250.31;5004526;28;20137;-44
2024/01/22 05:04:03;;;;;;;0.90;0.60;;;;;;;16.18;49.29;100264.88;5005569;28;20050;-43
2024/01/22 05:06:30;;;;;;;2.58;0.80;;;;;;;16.24;49.45;100259.78;5002604;28;20048;-43
2024/01/22 05:08:57;;;;;;;1.58;0.80;;;;;;;16.28;50.07;100273.63;5001766;28;20136;-43
2024/01/22 05:11:24;;;;;;;1.10;0.70;;;;;;;16.32;49.93;100292.88;5004559;28;20056;-43
2024/01/22 05:13:52;;;;;;;2.40;1.25;;;;;;;16.32;50.11;100285.69;5004984;28;20050;-44
2024/01/22 05:16:20;;;;;;;2.05;1.27;;;;;;;16.31;49.66;100273.34;5003140;28;20078;-42
2024/01/22 05:18:48;;;;;;;1.02;0.93;;;;;;;16.29;50.10;100281.53;5003753;28;20405;-43
2024/01/22 05:21:15;;;;;;;1.63;1.10;;;;;;;16.27;49.75;100301.38;5004726;28;20137;-43
2024/01/22 05:23:42;;;;;;;2.20;1.27;;;;;;;16.26;49.85;100279.16;5002618;28;20069;-43
2024/01/22 05:26:09;;;;;;;1.92;0.88;;;;;;;16.25;49.57;100277.50;4999888;28;20046;-43
2024/01/22 05:28:36;;;;;;;2.22;1.23;;;;;;;16.25;49.81;100287.34;5002138;28;20060;-43
2024/01/22 05:31:04;;;;;;;2.88;1.60;;;;;;;16.22;50.25;100309.88;5001948;28;20077;-43
2024/01/22 05:33:31;;;;;;;2.13;1.10;;;;;;;16.21;49.41;100292.16;5000324;28;20056;-43
2024/01/22 05:35:58;;;;;;;2.00;1.33;;;;;;;16.20;50.24;100284.28;5002272;28;20050;-43
2024/01/22 05:38:24;;;;;;;2.78;1.50;;;;;;;16.18;50.56;100303.16;5001911;28;20508;-43
2024/01/22 05:40:51;;;;;;;3.78;1.48;;;;;;;16.17;50.71;100282.78;5001095;28;20060;-42
2024/01/22 05:43:18;;;;;;;2.20;1.45;;;;;;;16.15;50.37;100279.41;5002657;28;20213;-43
2024/01/22 05:45:44;;;;;;;2.42;1.65;;;;;;;16.15;49.61;100283.91;4999392;28;20117;-43
2024/01/22 05:48:11;;;;;;;3.53;1.63;;;;;;;16.12;50.86;100285.09;4998298;28;20054;-43
2024/01/22 05:50:38;;;;;;;3.03;1.75;;;;;;;16.12;50.30;100273.53;5000816;28;20602;-43
2024/01/22 05:53:05;;;;;;;3.00;1.70;;;;;;;16.10;50.11;100284.38;4998366;28;20046;-43
2024/01/22 05:55:32;;;;;;;2.30;1.77;;;;;;;16.09;50.57;100277.38;4999793;28;20448;-43
2024/01/22 05:57:59;;;;;;;3.80;2.08;;;;;;;16.08;50.12;100293.53;4999395;28;20047;-43
2024/01/22 06:00:25;;;;;;;3.47;1.70;;;;;;;16.08;49.99;100298.88;4999696;28;20042;-42
2024/01/22 06:02:52;;;;;;;2.92;1.98;;;;;;;16.07;50.23;100299.88;5001211;28;20262;-43
2024/01/22 06:05:19;;;;;;;4.38;1.67;;;;;;;16.07;50.86;100308.75;5001965;28;20442;-44
2024/01/22 06:07:46;;;;;;;2.78;1.67;;;;;;;16.04;51.17;100309.91;5001240;28;20134;-43
2024/01/22 06:10:12;;;;;;;4.88;1.80;;;;;;;16.03;50.92;100304.69;4999307;28;20050;-43
2024/01/22 06:12:39;;;;;;;3.78;2.25;;;;;;;16.02;50.28;100321.75;5002020;28;20046;-43
2024/01/22 06:15:06;;;;;;;4.60;2.40;;;;;;;16.01;50.55;100322.75;5001501;28;20052;-43
2024/01/22 06:17:33;;;;;;;4.30;2.28;;;;;;;15.98;50.01;100318.53;4999003;28;20050;-43
2024/01/22 06:20:01;;;;;;;5.60;1.98;;;;;;;15.97;50.57;100321.38;4999552;28;20053;-42
2024/01/22 06:22:28;;;;;;;3.20;1.85;;;;;;;15.94;50.66;100325.16;4995446;28;20350;-43
2024/01/22 06:24:55;;;;;;;4.00;1.83;;;;;;;15.93;50.36;100328.00;4999281;28;20082;-42
2024/01/22 06:27:22;;;;;;;3.83;2.00;;;;;;;15.91;50.14;100313.94;4999772;28;20054;-42
2024/01/22 06:29:48;;;;;;;4.63;2.00;;;;;;;15.89;50.99;100324.78;4999660;28;20050;-41
2024/01/22 06:32:17;;;;;;;4.45;2.15;;;;;;;15.85;50.93;100322.59;4999002;28;20108;-43
2024/01/22 06:34:46;;;;;;;4.57;2.17;;;;;;;15.84;50.87;100332.44;4998251;28;20400;-43
2024/01/22 06:37:15;;;;;;;5.47;2.67;;;;;;;15.89;51.39;100324.78;4999418;28;20082;-43
2024/01/22 06:39:42;;;;;;;3.97;2.08;;;;;;;15.96;50.41;100325.00;4999098;28;20054;-42
2024/01/22 06:42:08;;;;;;;3.10;1.90;;;;;;;16.02;51.27;100317.22;5002480;28;20050;-43
2024/01/22 06:44:40;;;;;;;3.63;1.90;;;;;;;16.08;51.05;100315.78;4998299;28;20045;-43
2024/01/22 06:47:07;;;;;;;4.85;2.08;;;;;;;16.13;50.66;100334.88;4998421;28;20407;-43
2024/01/22 06:49:34;;;;;;;5.35;1.92;;;;;;;16.18;50.58;100329.91;4997451;28;20058;-44
2024/01/22 06:52:01;;;;;;;3.72;1.65;;;;;;;16.22;50.58;100339.28;4997237;28;20151;-43
2024/01/22 06:54:27;;;;;;;5.72;2.58;;;;;;;16.25;50.01;100336.31;4995853;28;20089;-43
2024/01/22 06:56:54;;;;;;;5.30;2.20;;;;;;;16.29;49.54;100328.81;4997006;28;20393;-42
2024/01/22 06:59:21;;;;;;;3.67;1.77;;;;;;;16.33;50.40;100335.53;4994838;28;20052;-44
2024/01/22 07:01:48;;;;;;;4.68;2.20;;;;;;;16.36;49.40;100342.41;5000357;28;20089;-44
2024/01/22 07:04:15;;;;;;;3.33;2.00;;;;;;;16.38;49.77;100345.78;4991687;28;20338;-42
2024/01/22 07:06:41;;;;;;;3.30;1.73;;;;;;;16.38;49.74;100346.63;4999755;28;20089;-43
2024/01/22 07:09:09;;;;;;;3.35;1.52;;;;;;;16.39;49.34;100358.16;5000820;28;20050;-43
2024/01/22 07:11:37;;;;;;;3.20;1.85;;;;;;;16.41;50.11;100346.31;5001067;28;20050;-43
2024/01/22 07:14:04;;;;;;;3.10;1.75;;;;;;;16.42;49.47;100357.84;5001038;28;20046;-43
2024/01/22 07:16:31;;;;;;;3.03;2.00;;;;;;;16.43;49.77;100354.16;5002946;28;20042;-43
2024/01/22 07:18:58;;;;;;;4.25;2.00;;;;;;;16.44;50.19;100351.34;5005064;28;20406;-43
2024/01/22 07:21:25;;;;;;;3.65;2.13;;;;;;;16.45;49.01;100352.19;5003052;28;21029;-43
2024/01/22 07:23:51;;;;;;;3.35;2.05;;;;;;;16.45;48.92;100360.22;4998870;28;20050;-43
2024/01/22 07:26:18;;;;;;;3.75;2.13;;;;;;;16.46;49.16;100361.88;5001904;28;20058;-43
2024/01/22 07:28:45;;;;;;;5.22;2.08;;;;;;;16.46;49.74;100375.25;5003512;28;20129;-43
2024/01/22 07:31:14;;;;;;;5.93;2.55;;;;;;;16.45;49.08;100361.06;5000978;28;20262;-43
2024/01/22 07:33:40;;;;;;;4.75;2.53;;;;;;;16.44;49.60;100366.53;5001596;28;20041;-43
2024/01/22 07:36:07;;;;;;;5.22;2.40;;;;;;;16.41;48.90;100370.38;4999840;28;20697;-44
2024/01/22 07:38:34;;;;;;;7.82;2.35;;;;;;;16.40;49.13;100366.03;5005184;28;20057;-42
2024/01/22 07:41:01;;;;;;;7.82;3.13;;;;;;;16.39;49.58;100368.84;5001229;28;20042;-43
2024/01/22 07:43:27;;;;;;;5.40;2.58;;;;;;;16.37;49.40;100371.69;5004188;28;20137;-43
2024/01/22 07:45:54;;;;;;;9.43;3.28;;;;;;;16.36;49.38;100364.66;5001255;28;20047;-43
2024/01/22 07:48:22;;;;;;;9.48;3.00;;;;;;;16.35;49.64;100362.97;5001495;28;20058;-42
2024/01/22 07:50:50;;;;;;;7.13;2.83;;;;;;;16.33;49.59;100370.31;5001878;28;20136;-43
2024/01/22 07:53:16;;;;;;;9.25;2.90;;;;;;;16.32;49.41;100373.13;5000750;28;20212;-42
2024/01/22 07:55:43;;;;;;;6.93;2.75;;;;;;;16.30;49.83;100386.66;5001041;28;20099;-44
2024/01/22 07:58:14;;;;;;;7.75;3.35;;;;;;;16.27;49.11;100379.78;4995577;28;20046;-41
2024/01/22 08:00:43;;;;;;;10.73;3.60;;;;;;;16.26;49.85;100409.34;5004787;28;20463;-43
2024/01/22 08:03:09;;;;;;;9.68;3.35;;;;;;;16.25;49.24;100411.19;4998338;28;20042;-44
2024/01/22 08:05:36;;;;;;;7.15;3.17;;;;;;;16.24;49.32;100414.00;5001002;28;20060;-42
2024/01/22 08:08:03;;;;;;;10.15;3.70;;;;;;;16.24;49.48;100417.53;5001855;28;20104;-42
2024/01/22 08:10:30;;;;;;;9.88;3.58;;;;;;;16.25;48.90;100418.38;5003344;28;20084;-42
2024/01/22 08:12:56;;;;;;;10.68;3.55;;;;;;;16.25;49.38;100427.22;5004152;28;20334;-43
2024/01/22 08:15:23;;;;;;;9.23;3.65;;;;;;;16.25;49.06;100432.59;5007115;28;20108;-43
2024/01/22 08:17:50;;;;;;;8.40;3.85;;;;;;;16.26;49.46;100444.13;5003256;28;20039;-45
2024/01/22 08:20:19;;;;;;;8.88;3.75;;;;;;;16.25;49.11;100462.00;4999292;28;20414;-44
2024/01/22 08:22:46;;;;;;;13.75;3.95;;;;;;;16.25;49.60;100442.44;5003127;28;20085;-44
2024/01/22 08:25:18;;;;;;;9.65;3.60;;;;;;;16.23;49.25;100455.94;5002388;28;20072;-47
2024/01/22 08:27:46;;;;;;;9.15;3.85;;;;;;;16.20;49.56;100466.97;5000562;28;20137;-45
2024/01/22 08:30:13;;;;;;;9.60;4.30;;;;;;;16.18;49.23;100444.88;5000841;28;20354;-44
2024/01/22 08:32:40;;;;;;;12.60;3.53;;;;;;;16.15;49.17;100466.56;5003323;28;20148;-42
2024/01/22 08:35:07;;;;;;;8.38;3.47;;;;;;;16.13;49.70;100471.22;4996729;28;20054;-42
2024/01/22 08:37:34;;;;;;;10.40;3.97;;;;;;;16.11;48.95;100461.66;5000024;28;20337;-43
2024/01/22 08:40:03;;;;;;;11.45;3.50;;;;;;;16.08;50.16;100473.50;5004570;28;20085;-41
2024/01/22 08:42:29;;;;;;;9.70;3.40;;;;;;;16.06;49.87;100478.16;4998143;28;20046;-42
2024/01/22 08:44:56;;;;;;;13.05;3.80;;;;;;;16.04;50.05;100489.00;5000648;28;20082;-43
2024/01/22 08:47:22;;;;;;;10.93;3.80;;;;;;;16.02;50.21;100495.47;5000771;28;20049;-43
2024/01/22 08:49:49;;;;;;;10.43;3.38;;;;;;;15.97;50.05;100479.06;4997879;28;20061;-42
2024/01/22 08:52:16;;;;;;;10.48;3.88;;;;;;;15.96;49.50;100490.72;5000145;28;20046;-42
2024/01/22 08:54:42;;;;;;;9.60;4.10;;;;;;;15.93;49.55;100496.38;4998262;28;20434;-43
2024/01/22 08:57:09;;;;;;;10.68;4.38;;;;;;;15.91;49.93;100499.19;5001430;28;20092;-43
2024/01/22 08:59:36;;;;;;;12.82;4.30;;;;;;;15.89;49.56;100508.38;5001611;28;20085;-41
2024/01/22 09:02:03;;;;;;;7.40;3.50;;;;;;;15.88;49.16;100503.97;5000328;28;20131;-42
2024/01/22 09:04:29;;;;;;;13.20;4.38;;;;;;;15.85;50.55;100515.84;5000932;28;20050;-42
2024/01/22 09:06:56;;;;;;;9.25;3.80;;;;;;;15.84;50.09;100535.53;4999101;28;20332;-41
2024/01/22 09:09:23;;;;;;;13.23;4.45;;;;;;;15.83;50.13;100538.34;4998906;28;20077;-42
2024/01/22 09:11:49;;;;;;;9.75;3.33;;;;;;;15.81;50.16;100532.31;4998191;28;20046;-44
2024/01/22 09:14:17;;;;;;;10.65;4.07;;;;;;;15.79;49.56;100519.06;4998683;28;20107;-42
2024/01/22 09:16:44;;;;;;;11.55;4.05;;;;;;;15.76;50.40;100517.56;5003811;28;20046;-41
2024/01/22 09:19:10;;;;;;;11.55;4.05;;;;;;;15.76;49.66;100517.56;4999188;28;20065;-43
2024/01/22 09:21:37;;;;;;;11.93;3.92;;;;;;;15.74;50.03;100521.34;5002961;28;20077;-40
2024/01/22 09:24:04;;;;;;;11.63;4.13;;;;;;;15.72;50.59;100526.84;4998021;28;20054;-42
2024/01/22 09:26:31;;;;;;;11.40;3.85;;;;;;;15.70;49.98;100533.31;5002535;28;20073;-41
2024/01/22 09:28:57;;;;;;;11.40;4.13;;;;;;;15.67;49.75;100550.47;5002146;28;20469;-43
2024/01/22 09:31:24;;;;;;;11.15;3.95;;;;;;;15.67;50.62;100552.31;5001379;28;20081;-42
2024/01/22 09:33:53;;;;;;;12.60;3.53;;;;;;;15.66;49.98;100555.97;5000356;28;20399;-43
2024/01/22 09:36:21;;;;;;;13.40;4.03;;;;;;;15.63;49.89;100554.41;5005377;28;20054;-43
2024/01/22 09:38:47;;;;;;;8.45;3.58;;;;;;;15.60;50.01;100562.72;5001372;28;20042;-43
2024/01/22 09:41:14;;;;;;;8.48;3.35;;;;;;;15.60;50.33;100575.22;5001379;28;20049;-43
2024/01/22 09:43:42;;;;;;;9.55;3.97;;;;;;;15.58;49.99;100586.06;4999065;28;20053;-42
2024/01/22 09:46:09;;;;;;;10.98;3.53;;;;;;;15.58;50.02;100591.38;5004481;28;20046;-42
2024/01/22 09:48:37;;;;;;;10.98;3.90;;;;;;;15.57;50.06;100594.22;5003243;28;20046;-43
2024/01/22 09:51:06;;;;;;;13.98;5.03;;;;;;;15.57;50.41;100588.88;5004800;28;20114;-41
2024/01/22 09:53:35;;;;;;;11.07;4.63;;;;;;;15.56;50.29;100590.72;5004510;28;20051;-43
2024/01/22 09:56:04;;;;;;;11.30;3.85;;;;;;;15.57;50.31;100602.22;5005148;28;20279;-42
2024/01/22 09:58:36;;;;;;;10.27;3.95;;;;;;;15.59;50.62;100605.59;5004852;28;20108;-43
2024/01/22 10:01:04;;;;;;;12.73;4.00;;;;;;;15.66;50.54;100604.06;5007172;28;20081;-43
2024/01/22 10:03:32;;;;;;;10.73;3.88;;;;;;;15.70;49.92;100617.00;5001843;28;20377;-43
2024/01/22 10:06:00;;;;;;;14.65;4.53;;;;;;;15.77;50.29;100618.09;5007129;28;20105;-43
2024/01/22 10:08:27;;;;;;;10.55;3.90;;;;;;;15.83;49.83;100621.19;5007423;28;20058;-42
2024/01/22 10:10:54;;;;;;;12.32;4.13;;;;;;;15.89;50.15;100625.97;5006037;28;20373;-44
2024/01/22 10:13:20;;;;;;;12.63;4.20;;;;;;;15.95;50.31;100625.34;5002343;28;20078;-43
2024/01/22 10:15:48;;;;;;;13.45;4.28;;;;;;;16.00;50.34;100642.66;5002692;28;20053;-43
2024/01/22 10:18:16;;;;;;;10.38;3.65;;;;;;;16.07;50.32;100639.41;5002489;28;20060;-43
2024/01/22 10:20:45;;;;;;;11.85;3.92;;;;;;;16.12;49.46;100635.31;5002625;28;20054;-44
2024/01/22 10:23:14;;;;;;;11.70;4.03;;;;;;;16.17;50.01;100653.59;5004076;28;20128;-42
2024/01/22 10:25:42;;;;;;;10.57;3.20;;;;;;;16.22;50.12;100652.16;5004242;28;20085;-44
2024/01/22 10:28:10;;;;;;;8.45;3.47;;;;;;;16.27;50.17;100668.59;4999990;28;20635;-44
2024/01/22 10:30:38;;;;;;;11.63;3.75;;;;;;;16.33;49.55;100669.03;5004436;28;20053;-43
2024/01/22 10:33:12;;;;;;;6.78;3.45;;;;;;;16.38;49.31;100669.41;5000221;28;20358;-44
2024/01/22 10:35:39;;;;;;;10.90;3.13;;;;;;;16.42;49.96;100673.47;4993906;28;20103;-44
2024/01/22 10:38:16;;;;;;;10.02;3.92;;;;;;;16.46;49.70;100675.69;4997872;28;20444;-40
2024/01/22 10:40:44;;;;;;;8.20;3.72;;;;;;;16.51;49.53;100684.13;5000564;28;20065;-38
2024/01/22 10:43:29;;;;;;;7.28;3.55;;;;;;;16.56;49.38;100691.69;5003705;28;20146;-38
2024/01/22 10:45:58;;;;;;;8.18;2.95;;;;;;;16.62;49.85;100693.81;5001186;28;20446;-39
2024/01/22 10:48:28;;;;;;;9.88;3.33;;;;;;;16.65;49.25;100693.50;5004829;28;20119;-40
2024/01/22 10:51:09;;;;;;;9.13;3.47;;;;;;;16.70;48.99;100696.56;5005162;28;20254;-42
2024/01/22 10:53:38;;;;;;;8.05;3.25;;;;;;;16.74;49.18;100706.03;5002740;28;20064;-40
2024/01/22 10:56:17;;;;;;;8.48;3.22;;;;;;;16.77;48.81;100711.09;5004551;28;20438;-40
2024/01/22 10:58:45;;;;;;;7.90;3.10;;;;;;;16.81;49.29;100708.13;5003578;28;20057;-41
2024/01/22 11:01:18;;;;;;;8.48;2.85;;;;;;;16.83;48.72;100724.88;4999390;28;20050;-39
2024/01/22 11:03:47;;;;;;;8.35;3.13;;;;;;;16.86;48.90;100705.84;5000148;28;20464;-41
2024/01/22 11:06:20;;;;;;;7.88;3.58;;;;;;;16.87;48.67;100726.25;4995343;28;20091;-42
2024/01/22 11:08:51;;;;;;;6.80;3.10;;;;;;;16.89;48.85;100735.00;5000400;28;20057;-40
2024/01/22 11:11:19;;;;;;;7.35;2.90;;;;;;;16.91;48.33;100741.03;5003446;28;20057;-42
2024/01/22 11:13:51;;;;;;;8.95;4.20;;;;;;;16.92;49.10;100740.84;5001427;28;20123;-41
2024/01/22 11:16:20;;;;;;;9.00;3.03;;;;;;;16.95;49.10;100734.38;5008527;28;20442;-41
2024/01/22 11:19:01;;;;;;;10.52;3.05;;;;;;;16.96;48.29;100746.75;5001077;28;20129;-38
2024/01/22 11:21:42;;;;;;;6.88;3.13;;;;;;;16.98;48.79;100728.72;4997313;28;20045;-42
2024/01/22 11:24:22;;;;;;;5.35;2.60;;;;;;;17.00;48.72;100740.13;5003919;28;20100;-42